createdAt,value
2022-08-04T00:01:45.153Z,101156.56
2022-08-04T00:04:01.997Z,101160.13
2022-08-04T00:06:10.068Z,101158.38
2022-08-04T00:08:19.291Z,101166.19
2022-08-04T00:10:23.030Z,101175.94
2022-08-04T00:12:31.505Z,101167.22
2022-08-04T00:14:41.795Z,101168.94
2022-08-04T00:16:46.474Z,101160.19
2022-08-04T00:18:57.588Z,101158.41
2022-08-04T00:21:04.507Z,101167.22
2022-08-04T00:23:06.825Z,101167.22
2022-08-04T00:25:08.660Z,101164.75
2022-08-04T00:27:10.911Z,101161.19
2022-08-04T00:29:12.647Z,101155.03
2022-08-04T00:31:16.063Z,101162.16
2022-08-04T00:33:22.057Z,101162.19
2022-08-04T00:35:24.033Z,101163.91
2022-08-04T00:37:27.327Z,101162.16
2022-08-04T00:39:30.862Z,101164.75
2022-08-04T00:41:57.027Z,101169.19
2022-08-04T00:44:01.910Z,101168.31
2022-08-04T00:46:34.544Z,101167.50
2022-08-04T00:49:02.166Z,101166.69
2022-08-04T00:51:17.420Z,101168.50
2022-08-04T00:53:39.281Z,101164.16
2022-08-04T00:56:05.413Z,101156.28
2022-08-04T00:58:19.254Z,101154.56
2022-08-04T01:00:21.273Z,101152.84
2022-08-04T01:02:35.872Z,101157.19
2022-08-04T01:05:06.546Z,101155.53
2022-08-04T01:07:18.880Z,101153.75
2022-08-04T01:09:40.217Z,101139.75
2022-08-04T01:12:12.821Z,101137.13
2022-08-04T01:14:51.898Z,101155.56
2022-08-04T01:17:14.582Z,101150.41
2022-08-04T01:19:28.931Z,101151.25
2022-08-04T01:21:40.561Z,101147.91
2022-08-04T01:23:48.241Z,101153.09
2022-08-04T01:26:43.198Z,101154.94
2022-08-04T01:29:09.676Z,101155.19
2022-08-04T01:31:44.093Z,101155.97
2022-08-04T01:34:04.051Z,101156.94
2022-08-04T01:36:07.111Z,101159.66
2022-08-04T01:38:21.229Z,101157.84
2022-08-04T01:40:27.351Z,101162.19
2022-08-04T01:42:32.606Z,101156.97
2022-08-04T01:44:36.912Z,101156.13
2022-08-04T01:46:40.480Z,101153.53
2022-08-04T01:48:47.379Z,101148.31
2022-08-04T01:50:57.313Z,101151.03
2022-08-04T01:53:01.629Z,101149.22
2022-08-04T01:55:07.101Z,101149.22
2022-08-04T01:57:38.243Z,101145.78
2022-08-04T01:59:34.735Z,101144.84
2022-08-04T02:01:37.499Z,101149.22
2022-08-04T02:04:18.548Z,101149.34
2022-08-04T02:06:25.531Z,101152.72
2022-08-04T02:08:27.609Z,101150.16
2022-08-04T02:10:31.417Z,101151.00
2022-08-04T02:12:36.632Z,101152.81
2022-08-04T02:15:01.002Z,101152.06
2022-08-04T02:17:13.001Z,101147.66
2022-08-04T02:19:33.511Z,101152.91
2022-08-04T02:21:42.389Z,101149.38
2022-08-04T02:23:47.127Z,101144.97
2022-08-04T02:26:01.636Z,101143.25
2022-08-04T02:28:06.572Z,101151.09
2022-08-04T02:30:08.872Z,101137.13
2022-08-04T02:32:25.698Z,101150.25
2022-08-04T02:34:54.890Z,101150.22
2022-08-04T02:36:59.885Z,101144.28
2022-08-04T02:39:04.247Z,101154.81
2022-08-04T02:41:09.348Z,101155.66
2022-08-04T02:43:13.228Z,101148.66
2022-08-04T02:45:19.142Z,101159.19
2022-08-04T02:47:22.560Z,101151.31
2022-08-04T02:49:28.318Z,101164.53
2022-08-04T02:51:42.728Z,101158.44
2022-08-04T02:53:46.598Z,101155.81
2022-08-04T02:55:52.310Z,101153.31
2022-08-04T02:57:59.576Z,101147.19
2022-08-04T03:00:15.276Z,101146.28
2022-08-04T03:02:22.482Z,101146.34
2022-08-04T03:04:42.796Z,101150.66
2022-08-04T03:06:47.558Z,101161.97
2022-08-04T03:09:07.340Z,101151.63
2022-08-04T03:11:18.379Z,101158.56
2022-08-04T03:14:09.545Z,101149.94
2022-08-04T03:16:15.564Z,101155.19
2022-08-04T03:18:35.981Z,101157.75
2022-08-04T03:21:22.702Z,101151.66
2022-08-04T03:24:06.339Z,101152.63
2022-08-04T03:26:32.338Z,101145.66
2022-08-04T03:28:48.857Z,101143.06
2022-08-04T03:31:24.584Z,101142.19
2022-08-04T03:33:45.452Z,101145.81
2022-08-04T03:36:28.499Z,101145.00
2022-08-04T03:39:00.489Z,101139.88
2022-08-04T03:41:54.892Z,101144.22
2022-08-04T03:44:13.422Z,101145.16
2022-08-04T03:46:47.752Z,101145.16
2022-08-04T03:49:22.848Z,101140.03
2022-08-04T03:52:14.915Z,101152.28
2022-08-04T03:54:37.191Z,101154.06
2022-08-04T03:57:20.693Z,101153.13
2022-08-04T03:59:48.854Z,101155.78
2022-08-04T04:02:02.905Z,101160.16
2022-08-04T04:04:30.433Z,101162.88
2022-08-04T04:07:05.772Z,101167.25
2022-08-04T04:09:23.407Z,101163.78
2022-08-04T04:11:57.882Z,101173.44
2022-08-04T04:14:10.914Z,101171.66
2022-08-04T04:16:18.575Z,101173.59
2022-08-04T04:18:52.380Z,101172.81
2022-08-04T04:21:09.286Z,101172.97
2022-08-04T04:23:20.462Z,101172.13
2022-08-04T04:26:06.154Z,101167.81
2022-08-04T04:28:45.461Z,101173.00
2022-08-04T04:30:56.352Z,101181.81
2022-08-04T04:33:12.504Z,101173.91
2022-08-04T04:35:20.644Z,101169.50
2022-08-04T04:37:28.369Z,101172.94
2022-08-04T04:39:56.941Z,101173.94
2022-08-04T04:42:21.180Z,101166.09
2022-08-04T04:44:35.688Z,101173.09
2022-08-04T04:46:46.222Z,101176.53
2022-08-04T04:49:31.619Z,101175.69
2022-08-04T04:51:50.584Z,101186.28
2022-08-04T04:54:12.387Z,101184.66
2022-08-04T04:56:47.311Z,101182.88
2022-08-04T04:58:52.988Z,101189.81
2022-08-04T05:01:36.614Z,101189.88
2022-08-04T05:04:06.581Z,101190.72
2022-08-04T05:06:19.483Z,101190.81
2022-08-04T05:08:47.399Z,101210.88
2022-08-04T05:11:08.884Z,101203.91
2022-08-04T05:14:37.036Z,101208.28
2022-08-04T05:15:45.218Z,101198.66
2022-08-04T05:17:51.258Z,101204.78
2022-08-04T05:20:03.746Z,101216.03
2022-08-04T05:22:33.357Z,101212.53
2022-08-04T05:24:44.101Z,101219.53
2022-08-04T05:26:47.127Z,101227.38
2022-08-04T05:28:53.862Z,101229.16
2022-08-04T05:31:06.401Z,101216.94
2022-08-04T05:33:13.900Z,101228.25
2022-08-04T05:36:16.864Z,101227.38
2022-08-04T05:38:06.589Z,101223.97
2022-08-04T05:40:11.074Z,101228.31
2022-08-04T05:42:13.970Z,101224.88
2022-08-04T05:44:18.299Z,101229.25
2022-08-04T05:46:20.232Z,101236.97
2022-08-04T05:48:22.956Z,101228.34
2022-08-04T05:50:25.038Z,101227.44
2022-08-04T05:52:27.868Z,101233.56
2022-08-04T05:54:35.458Z,101235.31
2022-08-04T05:56:39.038Z,101230.97
2022-08-04T05:58:42.547Z,101245.69
2022-08-04T06:00:52.293Z,101242.34
2022-08-04T06:02:55.984Z,101240.59
2022-08-04T06:04:59.467Z,101235.31
2022-08-04T06:07:01.423Z,101242.28
2022-08-04T06:09:03.291Z,101244.97
2022-08-04T06:11:08.440Z,101238.00
2022-08-04T06:13:48.416Z,101239.75
2022-08-04T06:15:46.150Z,101237.16
2022-08-04T06:18:32.817Z,101245.94
2022-08-04T06:20:37.280Z,101241.63
2022-08-04T06:22:41.840Z,101236.38
2022-08-04T06:24:48.257Z,101246.00
2022-08-04T06:26:51.661Z,101237.25
2022-08-04T06:28:55.491Z,101242.50
2022-08-04T06:32:31.796Z,101236.44
2022-08-04T06:33:27.704Z,101250.28
2022-08-04T06:35:31.435Z,101248.59
2022-08-04T06:37:43.179Z,101255.50
2022-08-04T06:39:46.244Z,101249.47
2022-08-04T06:42:14.804Z,101254.66
2022-08-04T06:44:13.160Z,101246.81
2022-08-04T06:46:15.455Z,101246.81
2022-08-04T06:48:19.108Z,101251.22
2022-08-04T06:51:27.654Z,101250.44
2022-08-04T06:52:45.331Z,101266.03
2022-08-04T06:54:48.834Z,101255.59
2022-08-04T06:56:53.326Z,101258.19
2022-08-04T06:58:55.970Z,101266.91
2022-08-04T07:01:02.127Z,101259.91
2022-08-04T07:03:05.610Z,101263.38
2022-08-04T07:05:08.616Z,101260.75
2022-08-04T07:07:11.919Z,101270.28
2022-08-04T07:09:18.993Z,101264.19
2022-08-04T07:11:21.403Z,101278.13
2022-08-04T07:13:23.805Z,101271.09
2022-08-04T07:15:26.982Z,101271.97
2022-08-04T07:17:34.608Z,101280.66
2022-08-04T07:19:37.255Z,101278.94
2022-08-04T07:21:39.783Z,101265.91
2022-08-04T07:23:41.632Z,101272.91
2022-08-04T07:26:10.853Z,101277.19
2022-08-04T07:28:07.270Z,101268.50
2022-08-04T07:30:09.878Z,101272.84
2022-08-04T07:32:13.755Z,101273.72
2022-08-04T07:34:21.094Z,101274.50
2022-08-04T07:36:24.001Z,101276.25
2022-08-04T07:38:31.966Z,101275.44
2022-08-04T07:40:36.441Z,101277.09
2022-08-04T07:42:41.319Z,101277.09
2022-08-04T07:44:45.985Z,101272.72
2022-08-04T07:46:48.052Z,101273.59
2022-08-04T07:48:49.998Z,101273.53
2022-08-04T07:50:52.478Z,101272.63
2022-08-04T07:53:22.428Z,101267.41
2022-08-04T07:55:16.979Z,101277.00
2022-08-04T07:57:40.664Z,101270.91
2022-08-04T07:59:44.890Z,101268.25
2022-08-04T08:01:49.698Z,101268.28
2022-08-04T08:03:52.979Z,101270.00
2022-08-04T08:06:17.200Z,101269.94
2022-08-04T08:08:16.926Z,101275.97
2022-08-04T08:10:18.762Z,101269.00
2022-08-04T08:12:35.442Z,101265.53
2022-08-04T08:14:43.801Z,101264.66
2022-08-04T08:16:46.985Z,101278.50
2022-08-04T08:18:50.166Z,101262.78
2022-08-04T08:20:53.300Z,101262.78
2022-08-04T08:22:55.067Z,101267.13
2022-08-04T08:24:57.021Z,101274.91
2022-08-04T08:27:00.415Z,101266.16
2022-08-04T08:29:04.132Z,101271.47
2022-08-04T08:31:07.181Z,101272.28
2022-08-04T08:33:12.922Z,101267.03
2022-08-04T08:35:14.645Z,101266.97
2022-08-04T08:37:30.941Z,101271.34
2022-08-04T08:39:59.742Z,101269.66
2022-08-04T08:42:33.899Z,101271.34
2022-08-04T08:45:04.749Z,101271.28
2022-08-04T08:47:15.635Z,101277.34
2022-08-04T08:50:00.822Z,101267.69
2022-08-04T08:53:00.823Z,101272.06
2022-08-04T08:55:19.877Z,101264.16
2022-08-04T08:57:30.625Z,101274.50
2022-08-04T08:59:32.136Z,101274.50
2022-08-04T09:01:55.067Z,101269.22
2022-08-04T09:04:32.879Z,101275.19
2022-08-04T09:06:43.815Z,101278.72
2022-08-04T09:09:05.850Z,101273.41
2022-08-04T09:11:19.825Z,101279.41
2022-08-04T09:13:27.840Z,101272.31
2022-08-04T09:15:57.372Z,101280.13
2022-08-04T09:18:16.502Z,101269.56
2022-08-04T09:20:30.029Z,101275.53
2022-08-04T09:22:48.387Z,101271.00
2022-08-04T09:25:21.512Z,101270.78
2022-08-04T09:27:31.014Z,101274.88
2022-08-04T09:29:52.664Z,101272.13
2022-08-04T09:32:16.552Z,101269.38
2022-08-04T09:34:27.902Z,101268.41
2022-08-04T09:36:39.614Z,101277.00
2022-08-04T09:39:01.436Z,101273.34
2022-08-04T09:41:48.139Z,101269.00
2022-08-04T09:44:49.206Z,101277.63
2022-08-04T09:46:44.930Z,101272.28
2022-08-04T09:48:46.604Z,101269.50
2022-08-04T09:50:58.189Z,101269.31
2022-08-04T09:53:15.462Z,101277.25
2022-08-04T09:55:20.106Z,101276.19
2022-08-04T09:57:45.804Z,101270.88
2022-08-04T10:00:06.481Z,101275.00
2022-08-04T10:02:09.616Z,101280.03
2022-08-04T10:04:15.069Z,101279.81
2022-08-04T10:06:45.968Z,101276.81
2022-08-04T10:08:59.516Z,101285.41
2022-08-04T10:11:18.097Z,101284.47
2022-08-04T10:13:19.950Z,101281.75
2022-08-04T10:15:34.083Z,101284.41
2022-08-04T10:17:54.713Z,101285.34
2022-08-04T10:20:45.641Z,101284.34
2022-08-04T10:23:12.278Z,101280.72
2022-08-04T10:26:05.965Z,101284.97
2022-08-04T10:28:03.132Z,101289.25
2022-08-04T10:30:12.997Z,101290.31
2022-08-04T10:32:26.692Z,101286.78
2022-08-04T10:34:36.713Z,101286.50
2022-08-04T10:37:04.810Z,101284.31
2022-08-04T10:39:41.968Z,101294.25
2022-08-04T10:41:54.544Z,101290.19
2022-08-04T10:44:23.842Z,101288.88
2022-08-04T10:46:37.667Z,101293.13
2022-08-04T10:48:48.417Z,101301.16
2022-08-04T10:51:22.317Z,101299.16
2022-08-04T10:53:27.028Z,101290.81
2022-08-04T10:56:06.399Z,101283.53
2022-08-04T10:58:04.538Z,101286.59
2022-08-04T11:00:12.929Z,101288.38
2022-08-04T11:02:27.165Z,101291.00
2022-08-04T11:04:53.661Z,101292.88
2022-08-04T11:06:58.841Z,101306.03
2022-08-04T11:09:03.095Z,101298.25
2022-08-04T11:11:15.123Z,101296.34
2022-08-04T11:13:22.041Z,101295.22
2022-08-04T11:15:40.049Z,101303.06
2022-08-04T11:17:47.240Z,101302.00
2022-08-04T11:19:55.715Z,101302.78
2022-08-04T11:22:25.051Z,101304.63
2022-08-04T11:25:02.150Z,101300.91
2022-08-04T11:27:16.331Z,101296.78
2022-08-04T11:29:31.926Z,101298.25
2022-08-04T11:31:39.456Z,101306.00
2022-08-04T11:33:53.225Z,101309.63
2022-08-04T11:36:16.590Z,101308.69
2022-08-04T11:38:32.157Z,101313.09
2022-08-04T11:41:02.317Z,101311.31
2022-08-04T11:43:19.127Z,101306.97
2022-08-04T11:45:51.126Z,101309.66
2022-08-04T11:48:07.122Z,101318.16
2022-08-04T11:50:14.874Z,101311.66
2022-08-04T11:52:19.632Z,101314.47
2022-08-04T11:54:22.257Z,101313.03
2022-08-04T11:56:36.582Z,101302.16
2022-08-04T11:58:39.271Z,101306.09
2022-08-04T12:00:53.830Z,101308.22
2022-08-04T12:03:33.322Z,101308.84
2022-08-04T12:05:55.101Z,101303.97
2022-08-04T12:08:38.733Z,101301.03
2022-08-04T12:11:01.792Z,101301.41
2022-08-04T12:13:20.253Z,101294.97
2022-08-04T12:15:31.446Z,101301.00
2022-08-04T12:17:52.517Z,101302.72
2022-08-04T12:20:31.734Z,101293.59
2022-08-04T12:22:29.835Z,101290.81
2022-08-04T12:24:46.155Z,101287.84
2022-08-04T12:26:54.098Z,101285.03
2022-08-04T12:29:10.429Z,101289.13
2022-08-04T12:31:52.902Z,101292.63
2022-08-04T12:34:03.863Z,101297.25
2022-08-04T12:36:24.967Z,101301.69
2022-08-04T12:38:32.460Z,101303.94
2022-08-04T12:40:38.601Z,101307.25
2022-08-04T12:42:55.881Z,101314.84
2022-08-04T12:45:08.031Z,101305.50
2022-08-04T12:47:27.723Z,101314.72
2022-08-04T12:49:35.081Z,101326.09
2022-08-04T12:52:08.066Z,101317.63
2022-08-04T12:54:03.694Z,101319.72
2022-08-04T12:56:07.810Z,101318.16
2022-08-04T12:58:41.842Z,101321.81
2022-08-04T13:00:42.160Z,101321.06
2022-08-04T13:02:47.059Z,101320.22
2022-08-04T13:04:51.157Z,101319.88
2022-08-04T13:07:00.765Z,101324.00
2022-08-04T13:09:19.753Z,101323.81
2022-08-04T13:11:22.927Z,101320.06
2022-08-04T13:13:31.405Z,101323.34
2022-08-04T13:15:47.601Z,101317.81
2022-08-04T13:18:14.823Z,101304.78
2022-08-04T13:20:24.554Z,101305.47
2022-08-04T13:22:30.126Z,101306.28
2022-08-04T13:24:37.512Z,101308.19
2022-08-04T13:26:57.879Z,101308.84
2022-08-04T13:29:20.422Z,101301.94
2022-08-04T13:31:23.829Z,101313.47
2022-08-04T13:33:32.792Z,101314.38
2022-08-04T13:35:55.642Z,101309.84
2022-08-04T13:37:58.579Z,101295.84
2022-08-04T13:40:03.268Z,101311.34
2022-08-04T13:42:12.282Z,101316.69
2022-08-04T13:44:20.389Z,101306.28
2022-08-04T13:46:31.831Z,101302.09
2022-08-04T13:48:39.353Z,101299.91
2022-08-04T13:50:46.113Z,101297.13
2022-08-04T13:52:48.343Z,101288.44
2022-08-04T13:54:53.670Z,101304.25
2022-08-04T13:57:00.687Z,101291.00
2022-08-04T13:59:05.982Z,101299.56
2022-08-04T14:01:21.012Z,101290.84
2022-08-04T14:03:53.952Z,101307.50
2022-08-04T14:06:08.107Z,101301.25
2022-08-04T14:08:18.053Z,101300.97
2022-08-04T14:10:20.018Z,101299.34
2022-08-04T14:12:46.374Z,101299.53
2022-08-04T14:14:52.525Z,101293.47
2022-08-04T14:17:05.755Z,101298.97
2022-08-04T14:19:08.194Z,101291.97
2022-08-04T14:21:13.001Z,101296.28
2022-08-04T14:23:14.706Z,101298.19
2022-08-04T14:25:18.542Z,101299.66
2022-08-04T14:27:20.516Z,101294.44
2022-08-04T14:29:28.989Z,101292.59
2022-08-04T14:31:31.374Z,101302.78
2022-08-04T14:34:03.503Z,101288.53
2022-08-04T14:36:04.058Z,101288.81
2022-08-04T14:38:11.127Z,101291.94
2022-08-04T14:40:30.558Z,101286.13
2022-08-04T14:42:55.475Z,101295.91
2022-08-04T14:45:01.052Z,101296.50
2022-08-04T14:47:02.837Z,101294.06
2022-08-04T14:49:11.256Z,101294.00
2022-08-04T14:51:16.439Z,101291.53
2022-08-04T14:53:26.536Z,101285.44
2022-08-04T14:55:28.360Z,101284.94
2022-08-04T14:57:30.141Z,101284.09
2022-08-04T15:00:00.618Z,101288.81
2022-08-04T15:02:04.985Z,101288.28
2022-08-04T15:04:07.814Z,101285.69
2022-08-04T15:06:16.171Z,101285.72
2022-08-04T15:08:20.911Z,101284.72
2022-08-04T15:10:22.958Z,101283.06
2022-08-04T15:12:24.965Z,101289.06
2022-08-04T15:14:36.249Z,101285.38
2022-08-04T15:16:39.893Z,101291.44
2022-08-04T15:18:57.669Z,101295.78
2022-08-04T15:21:03.239Z,101294.94
2022-08-04T15:23:10.630Z,101295.09
2022-08-04T15:25:15.649Z,101303.88
2022-08-04T15:27:19.575Z,101298.97
2022-08-04T15:29:29.795Z,101304.16
2022-08-04T15:32:06.006Z,101313.47
2022-08-04T15:34:11.916Z,101311.06
2022-08-04T15:36:22.491Z,101315.84
2022-08-04T15:38:37.317Z,101318.16
2022-08-04T15:40:45.011Z,101315.56
2022-08-04T15:43:22.044Z,101315.78
2022-08-04T15:46:37.366Z,101325.09
2022-08-04T15:48:07.341Z,101311.22
2022-08-04T15:50:13.747Z,101323.00
2022-08-04T15:53:00.735Z,101323.88
2022-08-04T15:55:57.299Z,101326.69
2022-08-04T15:58:04.852Z,101334.59
2022-08-04T16:00:14.664Z,101338.34
2022-08-04T16:02:32.221Z,101326.09
2022-08-04T16:04:34.061Z,101332.38
2022-08-04T16:06:35.673Z,101328.75
2022-08-04T16:08:57.225Z,101324.59
2022-08-04T16:10:59.981Z,101315.72
2022-08-04T16:13:08.430Z,101320.03
2022-08-04T16:15:40.990Z,101332.06
2022-08-04T16:17:42.721Z,101329.03
2022-08-04T16:19:48.923Z,101330.72
2022-08-04T16:21:53.338Z,101324.50
2022-08-04T16:24:06.984Z,101330.88
2022-08-04T16:26:08.931Z,101342.22
2022-08-04T16:28:35.529Z,101337.97
2022-08-04T16:30:41.676Z,101340.50
2022-08-04T16:32:48.064Z,101339.63
2022-08-04T16:35:04.389Z,101345.91
2022-08-04T16:37:12.554Z,101338.09
2022-08-04T16:39:20.213Z,101340.88
2022-08-04T16:41:42.501Z,101338.19
2022-08-04T16:43:44.241Z,101345.41
2022-08-04T16:45:54.137Z,101360.41
2022-08-04T16:47:55.878Z,101356.97
2022-08-04T16:50:03.946Z,101353.50
2022-08-04T16:52:11.906Z,101350.22
2022-08-04T16:54:15.727Z,101354.72
2022-08-04T16:56:20.669Z,101353.06
2022-08-04T16:58:28.464Z,101356.66
2022-08-04T17:00:38.221Z,101359.34
2022-08-04T17:02:40.385Z,101361.16
2022-08-04T17:04:42.137Z,101365.81
2022-08-04T17:06:48.629Z,101359.66
2022-08-04T17:08:50.336Z,101360.66
2022-08-04T17:10:52.067Z,101356.41
2022-08-04T17:13:08.529Z,101356.47
2022-08-04T17:15:23.288Z,101358.44
2022-08-04T17:17:25.056Z,101361.13
2022-08-04T17:19:52.773Z,101369.91
2022-08-04T17:22:02.992Z,101368.31
2022-08-04T17:24:14.684Z,101366.53
2022-08-04T17:26:24.347Z,101361.31
2022-08-04T17:28:47.305Z,101356.19
2022-08-04T17:30:51.556Z,101352.75
2022-08-04T17:32:53.508Z,101356.28
2022-08-04T17:34:59.302Z,101351.84
2022-08-04T17:37:37.806Z,101357.31
2022-08-04T17:39:34.870Z,101361.56
2022-08-04T17:41:40.206Z,101363.34
2022-08-04T17:44:05.321Z,101358.13
2022-08-04T17:46:29.201Z,101365.97
2022-08-04T17:48:31.498Z,101369.50
2022-08-04T17:50:36.398Z,101368.66
2022-08-04T17:52:45.435Z,101370.41
2022-08-04T17:54:47.318Z,101365.31
2022-08-04T17:56:52.335Z,101368.84
2022-08-04T17:59:55.433Z,101371.53
2022-08-04T18:01:52.226Z,101364.56
2022-08-04T18:03:58.124Z,101358.50
2022-08-04T18:06:12.187Z,101363.91
2022-08-04T18:08:39.303Z,101367.44
2022-08-04T18:10:55.370Z,101369.25
2022-08-04T18:13:07.770Z,101363.28
2022-08-04T18:15:25.561Z,101366.91
2022-08-04T18:18:21.443Z,101372.16
2022-08-04T18:20:15.205Z,101369.81
2022-08-04T18:22:27.881Z,101382.09
2022-08-04T18:24:35.096Z,101374.28
2022-08-04T18:26:53.951Z,101387.53
2022-08-04T18:28:55.833Z,101380.47
2022-08-04T18:30:58.122Z,101382.34
2022-08-04T18:33:16.529Z,101381.56
2022-08-04T18:35:22.967Z,101394.84
2022-08-04T18:38:03.711Z,101390.63
2022-08-04T18:40:09.754Z,101388.94
2022-08-04T18:42:09.722Z,101387.19
2022-08-04T18:44:11.804Z,101392.53
2022-08-04T18:46:16.494Z,101393.47
2022-08-04T18:48:18.376Z,101396.06
2022-08-04T18:51:01.174Z,101393.50
2022-08-04T18:52:45.738Z,101405.81
2022-08-04T18:54:47.832Z,101399.66
2022-08-04T18:59:17.773Z,101405.06
2022-08-04T19:01:21.158Z,101404.38
2022-08-04T19:03:33.081Z,101407.78
2022-08-04T19:05:38.067Z,101406.09
2022-08-04T19:08:01.929Z,101407.91
2022-08-04T19:10:05.019Z,101414.13
2022-08-04T19:12:07.979Z,101425.38
2022-08-04T19:14:13.780Z,101417.53
2022-08-04T19:16:16.691Z,101419.22
2022-08-04T19:18:22.630Z,101426.28
2022-08-04T19:20:26.921Z,101421.88
2022-08-04T19:22:35.568Z,101427.13
2022-08-04T19:24:40.954Z,101423.69
2022-08-04T19:26:42.889Z,101427.13
2022-08-04T19:28:52.496Z,101429.72
2022-08-04T19:30:55.080Z,101434.09
2022-08-04T19:32:57.268Z,101435.03
2022-08-04T19:34:59.407Z,101432.44
2022-08-04T19:37:02.455Z,101431.53
2022-08-04T19:39:16.806Z,101430.72
2022-08-04T19:41:18.934Z,101447.34
2022-08-04T19:43:22.872Z,101445.63
2022-08-04T19:45:41.726Z,101444.75
2022-08-04T19:48:17.555Z,101436.13
2022-08-04T19:50:10.504Z,101451.91
2022-08-04T19:52:13.637Z,101447.56
2022-08-04T19:54:23.602Z,101450.22
2022-08-04T19:56:29.672Z,101455.53
2022-08-04T19:58:42.201Z,101457.28
2022-08-04T20:00:51.258Z,101466.97
2022-08-04T20:02:54.087Z,101469.66
2022-08-04T20:04:56.100Z,101477.50
2022-08-04T20:06:58.629Z,101472.41
2022-08-04T20:09:00.751Z,101475.13
2022-08-04T20:11:03.617Z,101471.63
2022-08-04T20:13:10.446Z,101476.91
2022-08-04T20:15:15.131Z,101480.47
2022-08-04T20:17:17.916Z,101482.31
2022-08-04T20:19:26.411Z,101486.69
2022-08-04T20:21:54.315Z,101490.25
2022-08-04T20:23:52.664Z,101486.78
2022-08-04T20:25:55.035Z,101484.22
2022-08-04T20:27:59.832Z,101496.53
2022-08-04T20:30:07.599Z,101486.94
2022-08-04T20:32:25.603Z,101492.19
2022-08-04T20:34:28.161Z,101492.34
2022-08-04T20:36:30.204Z,101507.22
2022-08-04T20:38:33.416Z,101503.88
2022-08-04T20:40:40.749Z,101497.69
2022-08-04T20:42:45.064Z,101507.41
2022-08-04T20:44:48.610Z,101514.47
2022-08-04T20:46:50.732Z,101515.44
2022-08-04T20:49:03.215Z,101514.59
2022-08-04T20:51:08.972Z,101518.13
2022-08-04T20:53:16.168Z,101512.94
2022-08-04T20:55:19.250Z,101513.00
2022-08-04T20:57:47.626Z,101518.28
2022-08-04T20:59:59.599Z,101512.25
2022-08-04T21:02:06.151Z,101522.75
2022-08-04T21:04:45.278Z,101521.91
2022-08-04T21:06:50.133Z,101523.72
2022-08-04T21:08:57.283Z,101520.28
2022-08-04T21:11:00.396Z,101522.88
2022-08-04T21:13:02.529Z,101521.22
2022-08-04T21:15:14.169Z,101524.78
2022-08-04T21:19:46.805Z,101527.44
2022-08-04T21:21:53.232Z,101522.22
2022-08-04T21:23:55.788Z,101533.63
2022-08-04T21:26:04.058Z,101530.19
2022-08-04T21:28:05.955Z,101533.72
2022-08-04T21:30:24.140Z,101533.72
2022-08-04T21:32:28.398Z,101540.78
2022-08-04T21:36:52.612Z,101543.44
2022-08-04T21:38:57.428Z,101540.06
2022-08-04T21:41:01.744Z,101548.78
2022-08-04T21:43:04.235Z,101553.19
2022-08-04T21:45:07.893Z,101552.41
2022-08-04T21:47:23.174Z,101555.06
2022-08-04T21:49:32.692Z,101548.97
2022-08-04T21:51:59.196Z,101557.78
2022-08-04T21:54:01.718Z,101554.28
2022-08-04T21:56:05.010Z,101549.91
2022-08-04T21:58:09.457Z,101559.63
2022-08-04T22:00:19.409Z,101555.28
2022-08-04T22:02:22.115Z,101565.81
2022-08-04T22:04:24.253Z,101564.97
2022-08-04T22:06:28.279Z,101554.56
2022-08-04T22:08:31.015Z,101556.34
2022-08-04T22:10:33.317Z,101566.84
2022-08-04T22:12:35.605Z,101557.38
2022-08-04T22:14:39.541Z,101553.88
2022-08-04T22:16:41.680Z,101569.59
2022-08-04T22:18:43.896Z,101563.53
2022-08-04T22:20:46.970Z,101572.28
2022-08-04T22:22:51.368Z,101567.94
2022-08-04T22:24:54.235Z,101574.06
2022-08-04T22:26:56.362Z,101562.78
2022-08-04T22:28:58.624Z,101566.34
2022-08-04T22:31:24.149Z,101572.44
2022-08-04T22:33:54.724Z,101571.59
2022-08-04T22:35:49.715Z,101566.38
2022-08-04T22:38:05.645Z,101571.59
2022-08-04T22:40:11.999Z,101575.13
2022-08-04T22:42:15.252Z,101565.59
2022-08-04T22:44:18.258Z,101562.06
2022-08-04T22:46:32.748Z,101573.47
2022-08-04T22:48:39.679Z,101573.41
2022-08-04T22:50:45.897Z,101579.56
2022-08-04T22:52:49.696Z,101571.75
2022-08-04T22:54:58.380Z,101573.44
2022-08-04T22:57:00.233Z,101583.06
2022-08-04T22:59:02.924Z,101571.72
2022-08-04T23:01:06.109Z,101578.69
2022-08-04T23:03:10.091Z,101581.28
2022-08-04T23:05:35.837Z,101569.09
2022-08-04T23:07:49.523Z,101577.84
2022-08-04T23:09:53.683Z,101571.78
2022-08-04T23:12:15.158Z,101577.91
2022-08-04T23:14:19.878Z,101578.84
2022-08-04T23:16:24.698Z,101581.38
2022-08-04T23:18:27.063Z,101577.97
2022-08-04T23:20:32.543Z,101579.66
2022-08-04T23:22:37.419Z,101576.19
2022-08-04T23:24:45.122Z,101576.22
2022-08-04T23:26:49.811Z,101577.97
2022-08-04T23:28:51.714Z,101582.31
2022-08-04T23:30:53.831Z,101587.56
2022-08-04T23:32:56.043Z,101584.06
2022-08-04T23:34:58.865Z,101591.97
2022-08-04T23:37:01.160Z,101589.34
2022-08-04T23:39:05.612Z,101599.81
2022-08-04T23:41:13.516Z,101613.72
2022-08-04T23:43:17.844Z,101606.78
2022-08-04T23:46:04.042Z,101607.69
2022-08-04T23:48:18.504Z,101614.63
2022-08-04T23:50:04.377Z,101615.50
2022-08-04T23:52:06.415Z,101619.00
2022-08-04T23:54:08.397Z,101622.53
2022-08-04T23:56:19.501Z,101612.94
2022-08-04T23:58:27.489Z,101616.44
